Aviation Digital Data Service (ADDS)

Output produced by METARs form (1455 UTC 19 April 2019)
found at http://www.aviationweather.gov/metar/data/
 
Forecast for: GMME (RABAT/SALE (RMAF, MA)
Text: TAF GMME 191100Z 1912/2018 26010KT 8000 SCT015 SCT020 BKN100
Forecast period: 1200 UTC 19 April 2019 to 1800 UTC 20 April 2019
Forecast type: FROM: standard forecast or significant change
Winds: from the W (260 degrees) at 12 MPH (10 knots; 5.1 m/s)
Visibility: 5 miles (8 km)
Ceiling: 10000 feet AGL
Clouds: scattered clouds at 1500 feet AGL
scattered clouds at 2000 feet AGL
broken clouds at 10000 feet AGL
Weather: no significant weather forecast for this period
Text: TEMPO 1922/2013 34006KT
Forecast period: 2200 UTC 19 April 2019 to 1300 UTC 20 April 2019
Forecast type: TEMPORARY: The following changes expected for less than half the time period
Winds: from the NNW (340 degrees) at 7 MPH (6 knots; 3.1 m/s)
Visibility: missing
Ceiling: unknown
Clouds: missing
Weather: no significant weather forecast for this period